createdAt,value
2023-01-24T00:00:53.803Z,7.80
2023-01-24T00:04:05.755Z,8.98
2023-01-24T00:07:14.727Z,10.27
2023-01-24T00:10:20.130Z,8.27
2023-01-24T00:13:25.982Z,6.57
2023-01-24T00:16:31.261Z,6.93
2023-01-24T00:19:42.085Z,6.35
2023-01-24T00:22:47.819Z,5.70
2023-01-24T00:25:55.804Z,5.90
2023-01-24T00:29:01.787Z,5.57
2023-01-24T00:32:07.767Z,5.82
2023-01-24T00:35:16.331Z,5.97
2023-01-24T00:38:22.107Z,5.80
2023-01-24T00:41:27.536Z,5.82
2023-01-24T00:44:41.920Z,5.68
2023-01-24T00:47:48.930Z,5.50
2023-01-24T00:50:57.872Z,5.10
2023-01-24T00:54:03.687Z,6.05
2023-01-24T00:57:09.367Z,5.68
2023-01-24T01:00:14.890Z,5.60
2023-01-24T01:03:22.815Z,5.57
2023-01-24T01:06:31.236Z,5.30
2023-01-24T01:09:39.149Z,5.72
2023-01-24T01:12:44.578Z,5.75
2023-01-24T01:15:50.605Z,5.10
2023-01-24T01:18:57.590Z,5.50
2023-01-24T01:22:05.646Z,5.85
2023-01-24T01:25:11.096Z,5.35
2023-01-24T01:28:18.042Z,5.85
2023-01-24T01:31:23.385Z,5.45
2023-01-24T01:34:29.356Z,5.82
2023-01-24T01:37:39.267Z,5.78
2023-01-24T01:40:47.168Z,5.55
2023-01-24T01:44:04.869Z,5.20
2023-01-24T01:47:20.262Z,5.07
2023-01-24T01:50:31.088Z,5.57
2023-01-24T01:53:41.531Z,4.70
2023-01-24T01:56:50.258Z,5.30
2023-01-24T01:59:59.868Z,5.53
2023-01-24T02:03:19.663Z,5.30
2023-01-24T02:06:31.176Z,5.45
2023-01-24T02:09:41.491Z,6.30
2023-01-24T02:12:48.836Z,5.82
2023-01-24T02:16:07.577Z,5.63
2023-01-24T02:19:16.552Z,5.78
2023-01-24T02:22:25.385Z,4.82
2023-01-24T02:25:35.466Z,5.18
2023-01-24T02:28:48.588Z,5.40
2023-01-24T02:31:58.251Z,5.55
2023-01-24T02:35:05.055Z,5.85
2023-01-24T02:38:13.831Z,5.15
2023-01-24T02:41:20.663Z,5.47
2023-01-24T02:44:32.735Z,5.30
2023-01-24T02:47:39.494Z,5.82
2023-01-24T02:50:57.283Z,4.63
2023-01-24T02:54:04.333Z,5.35
2023-01-24T02:57:22.443Z,5.95
2023-01-24T03:00:30.369Z,6.28
2023-01-24T03:03:36.398Z,5.38
2023-01-24T03:06:42.577Z,5.55
2023-01-24T03:09:50.915Z,7.47
2023-01-24T03:13:08.203Z,7.10
2023-01-24T03:16:29.711Z,6.82
2023-01-24T03:19:47.034Z,7.15
2023-01-24T03:23:06.882Z,7.25
2023-01-24T03:26:24.389Z,6.53
2023-01-24T03:29:42.080Z,6.00
2023-01-24T03:33:02.968Z,7.18
2023-01-24T03:36:14.671Z,6.68
2023-01-24T03:39:32.189Z,5.82
2023-01-24T03:42:48.081Z,6.25
2023-01-24T03:45:55.930Z,6.93
2023-01-24T03:49:05.013Z,7.43
2023-01-24T03:52:22.308Z,6.60
2023-01-24T03:55:27.895Z,6.47
2023-01-24T03:58:33.955Z,6.43
2023-01-24T04:01:39.899Z,7.05
2023-01-24T04:05:02.109Z,6.72
2023-01-24T04:08:09.732Z,6.45
2023-01-24T04:11:15.914Z,6.32
2023-01-24T04:14:22.222Z,7.00
2023-01-24T04:17:27.839Z,6.50
2023-01-24T04:20:37.791Z,6.55
2023-01-24T04:23:43.001Z,5.70
2023-01-24T04:26:49.003Z,5.65
2023-01-24T04:29:54.265Z,4.82
2023-01-24T04:32:59.918Z,4.95
2023-01-24T04:36:11.956Z,3.92
2023-01-24T04:39:17.798Z,4.32
2023-01-24T04:42:22.768Z,4.97
2023-01-24T04:45:29.576Z,5.07
2023-01-24T04:48:34.784Z,5.43
2023-01-24T04:51:44.184Z,4.88
2023-01-24T04:54:49.645Z,4.60
2023-01-24T04:57:57.962Z,4.25
2023-01-24T05:01:06.160Z,4.90
2023-01-24T05:04:13.841Z,5.75
2023-01-24T05:07:21.578Z,4.78
2023-01-24T05:10:27.740Z,4.45
2023-01-24T05:13:32.907Z,5.35
2023-01-24T05:16:38.765Z,5.15
2023-01-24T05:19:46.583Z,5.22
2023-01-24T05:22:54.977Z,4.95
2023-01-24T05:26:01.964Z,4.60
2023-01-24T05:29:08.668Z,4.47
2023-01-24T05:32:13.630Z,4.68
2023-01-24T05:35:20.581Z,5.13
2023-01-24T05:38:28.613Z,4.50
2023-01-24T05:41:34.040Z,4.95
2023-01-24T05:44:39.583Z,4.47
2023-01-24T05:47:46.023Z,4.47
2023-01-24T05:50:51.392Z,5.72
2023-01-24T05:54:01.939Z,5.50
2023-01-24T05:57:07.337Z,5.40
2023-01-24T06:00:13.877Z,5.03
2023-01-24T06:03:24.701Z,5.57
2023-01-24T06:06:30.443Z,5.05
2023-01-24T06:09:38.597Z,5.13
2023-01-24T06:12:44.182Z,5.75
2023-01-24T06:15:51.906Z,5.70
2023-01-24T06:19:01.349Z,5.05
2023-01-24T06:22:14.064Z,5.03
2023-01-24T06:25:25.173Z,4.38
2023-01-24T06:28:31.675Z,4.70
2023-01-24T06:31:38.905Z,5.40
2023-01-24T06:34:54.236Z,5.38
2023-01-24T06:38:01.251Z,5.20
2023-01-24T06:41:17.829Z,5.35
2023-01-24T06:44:23.987Z,4.35
2023-01-24T06:47:29.357Z,5.68
2023-01-24T06:50:35.975Z,5.47
2023-01-24T06:53:42.476Z,5.55
2023-01-24T06:56:50.553Z,4.88
2023-01-24T06:59:55.883Z,5.53
2023-01-24T07:03:02.959Z,5.63
2023-01-24T07:06:08.221Z,5.03
2023-01-24T07:09:18.451Z,5.05
2023-01-24T07:12:26.716Z,4.65
2023-01-24T07:15:35.341Z,5.05
2023-01-24T07:18:41.350Z,6.15
2023-01-24T07:21:50.500Z,4.93
2023-01-24T07:24:56.650Z,5.22
2023-01-24T07:28:06.177Z,5.75
2023-01-24T07:31:12.442Z,5.28
2023-01-24T07:34:18.461Z,5.15
2023-01-24T07:37:26.203Z,5.32
2023-01-24T07:40:34.345Z,4.55
2023-01-24T07:43:44.644Z,6.03
2023-01-24T07:46:50.089Z,5.82
2023-01-24T07:49:56.171Z,6.10
2023-01-24T07:53:02.282Z,5.15
2023-01-24T07:56:10.471Z,5.00
2023-01-24T07:59:37.458Z,4.72
2023-01-24T08:02:45.837Z,4.53
2023-01-24T08:05:55.010Z,5.07
2023-01-24T08:08:59.998Z,4.80
2023-01-24T08:12:05.674Z,7.55
2023-01-24T08:15:14.395Z,6.15
2023-01-24T08:18:20.092Z,5.38
2023-01-24T08:21:25.516Z,4.22
2023-01-24T08:24:31.198Z,5.88
2023-01-24T08:27:38.760Z,5.53
2023-01-24T08:30:50.683Z,5.32
2023-01-24T08:33:57.366Z,6.22
2023-01-24T08:37:04.603Z,4.25
2023-01-24T08:40:11.627Z,4.72
2023-01-24T08:43:17.105Z,6.50
2023-01-24T08:46:25.104Z,5.25
2023-01-24T08:49:31.348Z,5.20
2023-01-24T08:52:39.226Z,7.28
2023-01-24T08:55:46.659Z,4.88
2023-01-24T08:58:52.999Z,5.07
2023-01-24T09:02:08.376Z,4.95
2023-01-24T09:05:15.653Z,5.82
2023-01-24T09:08:21.438Z,5.28
2023-01-24T09:11:27.054Z,5.50
2023-01-24T09:14:32.934Z,5.55
2023-01-24T09:17:41.714Z,5.13
2023-01-24T09:20:48.075Z,6.82
2023-01-24T09:23:53.872Z,6.22
2023-01-24T09:27:02.650Z,5.10
2023-01-24T09:30:09.429Z,5.07
2023-01-24T09:33:22.211Z,5.07
2023-01-24T09:36:27.474Z,5.72
2023-01-24T09:39:35.327Z,5.32
2023-01-24T09:42:45.752Z,5.43
2023-01-24T09:45:56.120Z,5.82
2023-01-24T09:49:19.094Z,4.80
2023-01-24T09:52:34.830Z,5.85
2023-01-24T09:55:41.937Z,5.93
2023-01-24T09:58:49.951Z,6.15
2023-01-24T10:01:56.257Z,5.55
2023-01-24T10:05:05.126Z,5.32
2023-01-24T10:08:16.326Z,6.65
2023-01-24T10:11:28.150Z,7.28
2023-01-24T10:14:44.208Z,6.35
2023-01-24T10:18:11.850Z,6.93
2023-01-24T10:21:34.643Z,6.65
2023-01-24T10:24:46.657Z,6.35
2023-01-24T10:27:54.817Z,6.38
2023-01-24T10:31:09.255Z,7.05
2023-01-24T10:34:16.777Z,6.35
2023-01-24T10:37:27.214Z,6.57
2023-01-24T10:40:35.498Z,6.50
2023-01-24T10:43:41.564Z,5.80
2023-01-24T10:46:51.353Z,6.20
2023-01-24T10:49:59.783Z,6.82
2023-01-24T10:53:27.428Z,6.88
2023-01-24T10:56:41.871Z,7.13
2023-01-24T11:02:57.539Z,6.65
2023-01-24T11:06:06.584Z,7.05
2023-01-24T11:09:13.901Z,6.57
2023-01-24T11:12:23.239Z,6.25
2023-01-24T11:15:31.723Z,7.00
2023-01-24T11:18:38.915Z,6.75
2023-01-24T11:21:54.936Z,6.75
2023-01-24T11:25:00.866Z,5.53
2023-01-24T11:28:26.092Z,6.35
2023-01-24T11:31:37.630Z,6.05
2023-01-24T11:34:52.963Z,5.15
2023-01-24T11:38:08.072Z,5.60
2023-01-24T11:41:22.791Z,5.93
2023-01-24T11:44:40.197Z,6.40
2023-01-24T11:47:50.503Z,6.00
2023-01-24T11:51:13.216Z,7.17
2023-01-24T11:54:27.502Z,6.03
2023-01-24T11:57:39.880Z,5.30
2023-01-24T12:00:55.440Z,5.03
2023-01-24T12:04:12.426Z,6.72
2023-01-24T12:07:21.255Z,4.53
2023-01-24T12:10:30.063Z,5.05
2023-01-24T12:13:39.891Z,6.57
2023-01-24T12:16:54.031Z,5.93
2023-01-24T12:20:06.410Z,5.88
2023-01-24T12:23:19.020Z,5.50
2023-01-24T12:26:27.334Z,5.85
2023-01-24T12:29:35.837Z,6.25
2023-01-24T12:32:48.649Z,6.00
2023-01-24T12:35:56.375Z,6.22
2023-01-24T12:39:08.954Z,6.75
2023-01-24T12:42:21.107Z,4.88
2023-01-24T12:45:31.621Z,6.63
2023-01-24T12:48:43.184Z,5.70
2023-01-24T12:51:50.969Z,5.23
2023-01-24T12:54:58.409Z,6.22
2023-01-24T12:58:05.154Z,6.18
2023-01-24T13:01:17.854Z,7.20
2023-01-24T13:04:29.685Z,6.28
2023-01-24T13:07:40.906Z,5.57
2023-01-24T13:10:58.942Z,6.15
2023-01-24T13:14:09.544Z,7.63
2023-01-24T13:17:31.359Z,5.68
2023-01-24T13:20:55.158Z,6.18
2023-01-24T13:24:09.244Z,6.00
2023-01-24T13:27:20.855Z,6.75
2023-01-24T13:30:35.104Z,5.53
2023-01-24T13:33:47.365Z,5.80
2023-01-24T13:36:53.823Z,6.72
2023-01-24T13:44:11.227Z,5.88
2023-01-24T13:47:31.165Z,5.78
2023-01-24T13:50:41.770Z,5.50
2023-01-24T13:54:04.027Z,6.72
2023-01-24T13:57:31.006Z,6.13
2023-01-24T14:00:38.304Z,6.22
2023-01-24T14:03:55.241Z,6.20
2023-01-24T14:07:04.943Z,6.60
2023-01-24T14:10:11.538Z,5.70
2023-01-24T14:13:31.303Z,7.35
2023-01-24T14:16:54.169Z,7.72
2023-01-24T14:20:01.505Z,8.43
2023-01-24T14:23:17.528Z,7.78
2023-01-24T14:26:30.220Z,7.65
2023-01-24T14:29:40.294Z,7.60
2023-01-24T14:32:53.033Z,8.05
2023-01-24T14:36:11.364Z,8.27
2023-01-24T14:39:27.194Z,8.30
2023-01-24T14:42:35.567Z,8.93
2023-01-24T14:45:46.115Z,7.85
2023-01-24T14:48:52.099Z,7.95
2023-01-24T14:52:18.016Z,9.05
2023-01-24T14:55:36.770Z,10.98
2023-01-24T14:58:41.730Z,10.10
2023-01-24T15:01:53.793Z,9.60
2023-01-24T15:04:59.756Z,9.00
2023-01-24T15:08:06.195Z,12.27
2023-01-24T15:11:22.989Z,11.55
2023-01-24T15:14:40.295Z,12.38
2023-01-24T15:17:49.049Z,13.38
2023-01-24T15:20:57.739Z,11.82
2023-01-24T15:24:05.935Z,12.80
2023-01-24T15:27:26.698Z,11.65
2023-01-24T15:30:36.027Z,11.18
2023-01-24T15:33:45.756Z,11.10
2023-01-24T15:37:00.461Z,9.90
2023-01-24T15:40:07.375Z,10.75
2023-01-24T15:43:31.832Z,12.00
2023-01-24T15:46:51.079Z,10.55
2023-01-24T15:50:02.959Z,12.00
2023-01-24T15:56:16.540Z,11.48
2023-01-24T15:59:25.965Z,10.65
2023-01-24T16:02:33.076Z,11.35
2023-01-24T16:05:39.063Z,11.15
2023-01-24T16:08:44.579Z,10.90
2023-01-24T16:11:58.136Z,9.63
2023-01-24T16:15:18.505Z,10.95
2023-01-24T16:18:29.131Z,10.48
2023-01-24T16:21:36.539Z,8.63
2023-01-24T16:24:46.492Z,10.45
2023-01-24T16:27:52.104Z,10.23
2023-01-24T16:31:09.972Z,8.27
2023-01-24T16:34:17.128Z,10.13
2023-01-24T16:37:24.892Z,10.52
2023-01-24T16:40:30.198Z,9.68
2023-01-24T16:43:37.856Z,10.23
2023-01-24T16:46:51.932Z,10.82
2023-01-24T16:49:57.987Z,9.25
2023-01-24T16:53:06.934Z,10.68
2023-01-24T16:56:15.112Z,10.90
2023-01-24T16:59:22.395Z,10.82
2023-01-24T17:02:33.349Z,10.25
2023-01-24T17:05:42.559Z,10.63
2023-01-24T17:08:48.335Z,10.02
2023-01-24T17:12:04.784Z,10.05
2023-01-24T17:15:19.516Z,10.68
2023-01-24T17:18:28.450Z,9.75
2023-01-24T17:21:36.542Z,8.55
2023-01-24T17:24:41.555Z,9.38
2023-01-24T17:27:48.917Z,7.80
2023-01-24T17:30:55.775Z,8.50
2023-01-24T17:34:04.762Z,7.63
2023-01-24T17:37:11.623Z,7.72
2023-01-24T17:40:17.678Z,7.82
2023-01-24T17:43:26.569Z,8.05
2023-01-24T17:46:32.638Z,7.78
2023-01-24T17:49:41.342Z,8.65
2023-01-24T17:52:47.139Z,7.57
2023-01-24T17:55:58.476Z,8.55
2023-01-24T17:59:04.624Z,8.65
2023-01-24T18:02:09.971Z,9.18
2023-01-24T18:05:18.663Z,8.95
2023-01-24T18:08:27.932Z,9.32
2023-01-24T18:11:33.860Z,7.75
2023-01-24T18:14:42.229Z,8.52
2023-01-24T18:17:47.931Z,9.25
2023-01-24T18:20:56.662Z,9.65
2023-01-24T18:24:05.241Z,9.68
2023-01-24T18:27:10.660Z,8.90
2023-01-24T18:30:16.831Z,6.93
2023-01-24T18:33:27.882Z,8.02
2023-01-24T18:36:41.532Z,7.95
2023-01-24T18:39:48.603Z,8.82
2023-01-24T18:42:54.731Z,9.73
2023-01-24T18:46:05.004Z,10.07
2023-01-24T18:49:10.548Z,9.85
2023-01-24T18:52:20.503Z,9.70
2023-01-24T18:55:26.314Z,11.40
2023-01-24T18:58:35.234Z,11.65
2023-01-24T19:01:43.830Z,9.05
2023-01-24T19:04:50.186Z,9.52
2023-01-24T19:07:59.997Z,7.05
2023-01-24T19:11:13.037Z,7.65
2023-01-24T19:14:20.387Z,9.55
2023-01-24T19:17:28.340Z,8.68
2023-01-24T19:20:34.660Z,7.68
2023-01-24T19:23:48.147Z,8.10
2023-01-24T19:26:54.147Z,7.95
2023-01-24T19:29:59.936Z,8.07
2023-01-24T19:33:11.152Z,7.85
2023-01-24T19:36:18.130Z,8.45
2023-01-24T19:39:31.652Z,7.47
2023-01-24T19:42:38.272Z,7.65
2023-01-24T19:46:10.567Z,5.45
2023-01-24T19:56:39.044Z,5.50
2023-01-24T19:59:51.182Z,6.10
2023-01-24T20:03:00.178Z,5.78
2023-01-24T20:06:08.672Z,6.32
2023-01-24T20:09:32.842Z,6.40
2023-01-24T20:12:43.054Z,6.78
2023-01-24T20:15:52.747Z,6.32
2023-01-24T20:19:10.938Z,7.15
2023-01-24T20:22:19.322Z,5.40
2023-01-24T20:25:25.819Z,7.03
2023-01-24T20:28:36.613Z,4.78
2023-01-24T20:31:50.770Z,6.95
2023-01-24T20:35:01.415Z,6.45
2023-01-24T20:38:12.558Z,6.40
2023-01-24T20:44:55.136Z,6.55
2023-01-24T20:48:12.713Z,6.72
2023-01-24T20:51:30.210Z,5.03
2023-01-24T20:58:16.100Z,7.32
2023-01-24T21:01:29.663Z,7.20
2023-01-24T21:04:36.185Z,6.40
2023-01-24T21:07:45.112Z,5.97
2023-01-24T21:10:51.202Z,7.25
2023-01-24T21:13:58.230Z,7.95
2023-01-24T21:17:12.562Z,8.45
2023-01-24T21:20:46.739Z,8.85
2023-01-24T21:24:04.931Z,7.88
2023-01-24T21:27:14.982Z,6.40
2023-01-24T21:30:24.622Z,8.15
2023-01-24T21:33:37.362Z,5.20
2023-01-24T21:36:46.905Z,6.53
2023-01-24T21:39:54.400Z,6.00
2023-01-24T21:43:00.694Z,6.40
2023-01-24T21:46:07.895Z,8.05
2023-01-24T21:49:27.197Z,8.73
2023-01-24T21:52:34.959Z,7.93
2023-01-24T21:56:01.458Z,6.60
2023-01-24T21:59:05.006Z,7.55
2023-01-24T22:02:19.724Z,7.90
2023-01-24T22:05:29.857Z,8.60
2023-01-24T22:08:47.997Z,8.25
2023-01-24T22:12:01.428Z,7.82
2023-01-24T22:15:38.487Z,6.70
2023-01-24T22:18:46.425Z,8.75
2023-01-24T22:22:13.377Z,8.38
2023-01-24T22:25:34.321Z,7.88
2023-01-24T22:28:45.314Z,8.77
2023-01-24T22:32:00.122Z,6.97
2023-01-24T22:35:09.669Z,7.47
2023-01-24T22:38:33.970Z,7.30
2023-01-24T22:41:42.986Z,7.95
2023-01-24T22:44:53.559Z,8.38
2023-01-24T22:48:00.194Z,5.85
2023-01-24T22:51:12.463Z,5.90
2023-01-24T22:54:20.538Z,5.53
2023-01-24T22:57:30.583Z,6.45
2023-01-24T23:00:37.978Z,6.10
2023-01-24T23:03:46.244Z,6.30
2023-01-24T23:06:54.480Z,5.25
2023-01-24T23:10:03.812Z,6.45
2023-01-24T23:13:21.355Z,6.13
2023-01-24T23:16:37.257Z,5.05
2023-01-24T23:20:00.488Z,5.00
2023-01-24T23:23:08.301Z,6.07
2023-01-24T23:26:16.692Z,6.00
2023-01-24T23:29:36.544Z,7.38
2023-01-24T23:32:44.829Z,5.45
2023-01-24T23:35:50.939Z,5.32
2023-01-24T23:38:57.552Z,5.30
2023-01-24T23:42:06.384Z,5.40
2023-01-24T23:45:17.655Z,5.65
2023-01-24T23:48:24.209Z,5.50
2023-01-24T23:51:36.068Z,5.60
2023-01-24T23:54:46.649Z,6.07
2023-01-24T23:57:56.691Z,6.03
